sensor_id;sensor_type;location;lat;lon;timestamp;P1;durP1;ratioP1;P2;durP2;ratioP2
65279;SDS011;51878;55.748;48.742;2024-02-21T00:00:27;17.52;;;3.50;;
65279;SDS011;51878;55.748;48.742;2024-02-21T00:05:29;4.65;;;2.53;;
65279;SDS011;51878;55.748;48.742;2024-02-21T00:10:32;7.50;;;3.53;;
65279;SDS011;51878;55.748;48.742;2024-02-21T00:15:34;3.15;;;2.33;;
65279;SDS011;51878;55.748;48.742;2024-02-21T00:20:36;3.20;;;2.63;;
65279;SDS011;51878;55.748;48.742;2024-02-21T00:25:39;8.10;;;3.22;;
65279;SDS011;51878;55.748;48.742;2024-02-21T00:30:41;6.03;;;3.05;;
65279;SDS011;51878;55.748;48.742;2024-02-21T00:35:43;6.28;;;2.60;;
65279;SDS011;51878;55.748;48.742;2024-02-21T00:40:45;5.55;;;3.30;;
65279;SDS011;51878;55.748;48.742;2024-02-21T00:45:48;4.60;;;3.40;;
65279;SDS011;51878;55.748;48.742;2024-02-21T00:50:50;4.90;;;3.10;;
65279;SDS011;51878;55.748;48.742;2024-02-21T00:55:52;3.85;;;2.65;;
65279;SDS011;51878;55.748;48.742;2024-02-21T01:00:54;3.20;;;2.28;;
65279;SDS011;51878;55.748;48.742;2024-02-21T01:05:57;3.70;;;2.97;;
65279;SDS011;51878;55.748;48.742;2024-02-21T01:10:59;4.25;;;2.83;;
65279;SDS011;51878;55.748;48.742;2024-02-21T01:16:01;4.30;;;2.50;;
65279;SDS011;51878;55.748;48.742;2024-02-21T01:21:03;3.60;;;2.63;;
65279;SDS011;51878;55.748;48.742;2024-02-21T01:26:08;5.07;;;4.32;;
65279;SDS011;51878;55.748;48.742;2024-02-21T01:31:14;9.52;;;3.65;;
65279;SDS011;51878;55.748;48.742;2024-02-21T01:36:17;2.97;;;2.33;;
65279;SDS011;51878;55.748;48.742;2024-02-21T01:41:20;3.15;;;2.80;;
65279;SDS011;51878;55.748;48.742;2024-02-21T01:46:22;11.48;;;3.78;;
65279;SDS011;51878;55.748;48.742;2024-02-21T01:51:29;4.00;;;2.38;;
65279;SDS011;51878;55.748;48.742;2024-02-21T01:56:32;2.40;;;1.63;;
65279;SDS011;51878;55.748;48.742;2024-02-21T02:01:36;4.32;;;3.25;;
65279;SDS011;51878;55.748;48.742;2024-02-21T02:06:38;7.78;;;3.10;;
65279;SDS011;51878;55.748;48.742;2024-02-21T02:11:42;6.32;;;3.40;;
65279;SDS011;51878;55.748;48.742;2024-02-21T02:16:47;7.30;;;3.78;;
65279;SDS011;51878;55.748;48.742;2024-02-21T02:21:50;7.35;;;3.13;;
65279;SDS011;51878;55.748;48.742;2024-02-21T02:27:02;3.35;;;2.45;;
65279;SDS011;51878;55.748;48.742;2024-02-21T02:32:04;6.78;;;3.53;;
65279;SDS011;51878;55.748;48.742;2024-02-21T02:37:06;6.55;;;4.07;;
65279;SDS011;51878;55.748;48.742;2024-02-21T02:42:09;3.53;;;2.78;;
65279;SDS011;51878;55.748;48.742;2024-02-21T02:47:11;5.38;;;3.60;;
65279;SDS011;51878;55.748;48.742;2024-02-21T02:52:13;5.03;;;2.67;;
65279;SDS011;51878;55.748;48.742;2024-02-21T02:57:15;6.05;;;3.88;;
65279;SDS011;51878;55.748;48.742;2024-02-21T03:02:19;12.05;;;3.35;;
65279;SDS011;51878;55.748;48.742;2024-02-21T03:07:21;8.27;;;5.75;;
65279;SDS011;51878;55.748;48.742;2024-02-21T03:12:23;3.75;;;1.98;;
65279;SDS011;51878;55.748;48.742;2024-02-21T03:17:29;9.25;;;3.22;;
65279;SDS011;51878;55.748;48.742;2024-02-21T03:22:32;8.48;;;4.97;;
65279;SDS011;51878;55.748;48.742;2024-02-21T03:27:34;3.28;;;2.97;;
65279;SDS011;51878;55.748;48.742;2024-02-21T03:32:37;8.38;;;2.85;;
65279;SDS011;51878;55.748;48.742;2024-02-21T03:37:41;7.43;;;3.72;;
65279;SDS011;51878;55.748;48.742;2024-02-21T03:42:43;4.55;;;2.78;;
65279;SDS011;51878;55.748;48.742;2024-02-21T03:47:46;6.47;;;4.18;;
65279;SDS011;51878;55.748;48.742;2024-02-21T03:52:48;5.07;;;3.65;;
65279;SDS011;51878;55.748;48.742;2024-02-21T03:57:50;4.82;;;3.47;;
65279;SDS011;51878;55.748;48.742;2024-02-21T04:02:52;8.18;;;4.97;;
65279;SDS011;51878;55.748;48.742;2024-02-21T04:07:55;4.00;;;3.38;;
65279;SDS011;51878;55.748;48.742;2024-02-21T04:12:57;9.32;;;4.72;;
65279;SDS011;51878;55.748;48.742;2024-02-21T04:18:00;8.07;;;4.25;;
65279;SDS011;51878;55.748;48.742;2024-02-21T04:23:03;6.65;;;3.70;;
65279;SDS011;51878;55.748;48.742;2024-02-21T04:28:05;5.38;;;3.38;;
65279;SDS011;51878;55.748;48.742;2024-02-21T04:33:07;6.90;;;5.10;;
65279;SDS011;51878;55.748;48.742;2024-02-21T04:38:10;5.35;;;3.88;;
65279;SDS011;51878;55.748;48.742;2024-02-21T04:43:12;7.88;;;4.00;;
65279;SDS011;51878;55.748;48.742;2024-02-21T04:48:14;8.73;;;4.10;;
65279;SDS011;51878;55.748;48.742;2024-02-21T04:53:17;7.28;;;3.60;;
65279;SDS011;51878;55.748;48.742;2024-02-21T04:58:19;7.10;;;3.95;;
65279;SDS011;51878;55.748;48.742;2024-02-21T05:03:21;4.72;;;2.63;;
65279;SDS011;51878;55.748;48.742;2024-02-21T05:08:23;7.00;;;4.47;;
65279;SDS011;51878;55.748;48.742;2024-02-21T05:13:26;5.97;;;3.45;;
65279;SDS011;51878;55.748;48.742;2024-02-21T05:18:28;7.13;;;4.18;;
65279;SDS011;51878;55.748;48.742;2024-02-21T05:23:30;9.63;;;5.07;;
65279;SDS011;51878;55.748;48.742;2024-02-21T05:28:32;7.97;;;3.60;;
65279;SDS011;51878;55.748;48.742;2024-02-21T05:33:35;8.13;;;3.67;;
65279;SDS011;51878;55.748;48.742;2024-02-21T05:38:37;7.63;;;4.85;;
65279;SDS011;51878;55.748;48.742;2024-02-21T05:43:40;11.82;;;6.13;;
65279;SDS011;51878;55.748;48.742;2024-02-21T05:48:42;7.93;;;5.25;;
65279;SDS011;51878;55.748;48.742;2024-02-21T05:53:44;5.75;;;3.95;;
65279;SDS011;51878;55.748;48.742;2024-02-21T05:58:47;8.20;;;5.82;;
65279;SDS011;51878;55.748;48.742;2024-02-21T06:03:50;7.88;;;4.93;;
65279;SDS011;51878;55.748;48.742;2024-02-21T06:08:52;8.07;;;4.80;;
65279;SDS011;51878;55.748;48.742;2024-02-21T06:13:54;7.30;;;4.18;;
65279;SDS011;51878;55.748;48.742;2024-02-21T06:18:57;9.88;;;5.32;;
65279;SDS011;51878;55.748;48.742;2024-02-21T06:24:01;11.00;;;5.90;;
65279;SDS011;51878;55.748;48.742;2024-02-21T06:29:04;7.47;;;4.80;;
65279;SDS011;51878;55.748;48.742;2024-02-21T06:34:06;9.20;;;4.50;;
65279;SDS011;51878;55.748;48.742;2024-02-21T06:39:09;9.60;;;4.00;;
65279;SDS011;51878;55.748;48.742;2024-02-21T06:44:13;7.90;;;4.93;;
65279;SDS011;51878;55.748;48.742;2024-02-21T06:49:15;6.45;;;4.25;;
65279;SDS011;51878;55.748;48.742;2024-02-21T06:54:18;10.73;;;5.00;;
65279;SDS011;51878;55.748;48.742;2024-02-21T06:59:20;8.55;;;4.10;;
65279;SDS011;51878;55.748;48.742;2024-02-21T07:04:22;10.02;;;6.07;;
65279;SDS011;51878;55.748;48.742;2024-02-21T07:09:24;9.18;;;4.43;;
65279;SDS011;51878;55.748;48.742;2024-02-21T07:14:30;14.00;;;5.53;;
65279;SDS011;51878;55.748;48.742;2024-02-21T07:19:34;8.90;;;4.88;;
65279;SDS011;51878;55.748;48.742;2024-02-21T07:24:37;9.48;;;5.20;;
65279;SDS011;51878;55.748;48.742;2024-02-21T07:29:39;8.98;;;5.15;;
65279;SDS011;51878;55.748;48.742;2024-02-21T07:34:42;7.10;;;5.10;;
65279;SDS011;51878;55.748;48.742;2024-02-21T07:39:44;10.05;;;5.90;;
65279;SDS011;51878;55.748;48.742;2024-02-21T07:44:47;9.20;;;5.10;;
65279;SDS011;51878;55.748;48.742;2024-02-21T07:49:49;10.38;;;5.30;;
65279;SDS011;51878;55.748;48.742;2024-02-21T07:54:51;8.35;;;4.63;;
65279;SDS011;51878;55.748;48.742;2024-02-21T07:59:53;9.35;;;4.70;;
65279;SDS011;51878;55.748;48.742;2024-02-21T08:04:56;9.45;;;5.07;;
65279;SDS011;51878;55.748;48.742;2024-02-21T08:09:58;7.80;;;5.05;;
65279;SDS011;51878;55.748;48.742;2024-02-21T08:15:00;8.18;;;4.63;;
65279;SDS011;51878;55.748;48.742;2024-02-21T08:20:06;9.82;;;5.82;;
65279;SDS011;51878;55.748;48.742;2024-02-21T08:25:09;11.00;;;6.00;;
65279;SDS011;51878;55.748;48.742;2024-02-21T08:30:11;9.63;;;6.13;;
65279;SDS011;51878;55.748;48.742;2024-02-21T08:35:13;11.13;;;5.47;;
65279;SDS011;51878;55.748;48.742;2024-02-21T08:40:16;9.55;;;5.90;;
65279;SDS011;51878;55.748;48.742;2024-02-21T08:45:23;8.65;;;5.57;;
65279;SDS011;51878;55.748;48.742;2024-02-21T08:50:25;9.68;;;5.55;;
65279;SDS011;51878;55.748;48.742;2024-02-21T08:55:28;9.30;;;6.53;;
65279;SDS011;51878;55.748;48.742;2024-02-21T09:00:31;10.57;;;6.07;;
65279;SDS011;51878;55.748;48.742;2024-02-21T09:05:33;10.23;;;6.10;;
65279;SDS011;51878;55.748;48.742;2024-02-21T09:10:36;10.38;;;5.97;;
65279;SDS011;51878;55.748;48.742;2024-02-21T09:15:39;8.90;;;5.65;;
65279;SDS011;51878;55.748;48.742;2024-02-21T09:20:41;13.10;;;6.45;;
65279;SDS011;51878;55.748;48.742;2024-02-21T09:25:43;12.23;;;5.72;;
65279;SDS011;51878;55.748;48.742;2024-02-21T09:30:46;8.80;;;5.40;;
65279;SDS011;51878;55.748;48.742;2024-02-21T09:35:48;10.65;;;5.47;;
65279;SDS011;51878;55.748;48.742;2024-02-21T09:40:59;7.88;;;5.00;;
65279;SDS011;51878;55.748;48.742;2024-02-21T09:46:03;12.15;;;5.82;;
65279;SDS011;51878;55.748;48.742;2024-02-21T09:51:05;12.52;;;6.13;;
65279;SDS011;51878;55.748;48.742;2024-02-21T09:56:10;9.65;;;6.15;;
65279;SDS011;51878;55.748;48.742;2024-02-21T10:01:15;10.50;;;5.63;;
65279;SDS011;51878;55.748;48.742;2024-02-21T10:06:25;9.03;;;5.50;;
65279;SDS011;51878;55.748;48.742;2024-02-21T10:11:28;8.40;;;5.38;;
65279;SDS011;51878;55.748;48.742;2024-02-21T10:16:30;7.55;;;4.60;;
65279;SDS011;51878;55.748;48.742;2024-02-21T10:21:32;10.20;;;4.78;;
65279;SDS011;51878;55.748;48.742;2024-02-21T10:26:35;10.48;;;5.18;;
65279;SDS011;51878;55.748;48.742;2024-02-21T10:31:38;9.30;;;5.00;;
65279;SDS011;51878;55.748;48.742;2024-02-21T10:36:41;7.82;;;5.35;;
65279;SDS011;51878;55.748;48.742;2024-02-21T10:41:44;11.80;;;5.38;;
65279;SDS011;51878;55.748;48.742;2024-02-21T10:46:46;8.65;;;5.53;;
65279;SDS011;51878;55.748;48.742;2024-02-21T10:51:50;9.18;;;5.32;;
65279;SDS011;51878;55.748;48.742;2024-02-21T10:57:14;10.05;;;4.93;;
65279;SDS011;51878;55.748;48.742;2024-02-21T11:02:17;7.90;;;5.07;;
65279;SDS011;51878;55.748;48.742;2024-02-21T11:07:20;8.73;;;5.45;;
65279;SDS011;51878;55.748;48.742;2024-02-21T11:12:23;11.10;;;5.70;;
65279;SDS011;51878;55.748;48.742;2024-02-21T11:17:25;11.27;;;5.40;;
65279;SDS011;51878;55.748;48.742;2024-02-21T11:22:28;8.27;;;5.07;;
65279;SDS011;51878;55.748;48.742;2024-02-21T11:27:33;10.30;;;5.55;;
65279;SDS011;51878;55.748;48.742;2024-02-21T11:32:36;9.85;;;5.55;;
65279;SDS011;51878;55.748;48.742;2024-02-21T11:37:38;8.48;;;5.18;;
65279;SDS011;51878;55.748;48.742;2024-02-21T11:42:42;7.47;;;5.00;;
65279;SDS011;51878;55.748;48.742;2024-02-21T11:47:44;8.88;;;5.20;;
65279;SDS011;51878;55.748;48.742;2024-02-21T11:52:48;10.48;;;5.28;;
65279;SDS011;51878;55.748;48.742;2024-02-21T11:57:50;9.05;;;5.05;;
65279;SDS011;51878;55.748;48.742;2024-02-21T12:02:52;7.50;;;4.57;;
65279;SDS011;51878;55.748;48.742;2024-02-21T12:07:57;8.25;;;4.63;;
65279;SDS011;51878;55.748;48.742;2024-02-21T12:13:06;10.10;;;5.25;;
65279;SDS011;51878;55.748;48.742;2024-02-21T12:18:10;8.88;;;5.00;;
65279;SDS011;51878;55.748;48.742;2024-02-21T12:23:12;8.55;;;4.70;;
65279;SDS011;51878;55.748;48.742;2024-02-21T12:28:15;9.38;;;4.32;;
65279;SDS011;51878;55.748;48.742;2024-02-21T12:33:21;8.68;;;4.15;;
65279;SDS011;51878;55.748;48.742;2024-02-21T12:38:26;8.88;;;3.83;;
65279;SDS011;51878;55.748;48.742;2024-02-21T12:43:29;8.70;;;4.05;;
65279;SDS011;51878;55.748;48.742;2024-02-21T12:48:31;7.28;;;3.53;;
65279;SDS011;51878;55.748;48.742;2024-02-21T12:53:34;9.23;;;3.75;;
65279;SDS011;51878;55.748;48.742;2024-02-21T12:58:36;6.20;;;3.67;;
65279;SDS011;51878;55.748;48.742;2024-02-21T13:03:39;7.50;;;3.55;;
65279;SDS011;51878;55.748;48.742;2024-02-21T13:08:41;7.40;;;3.45;;
65279;SDS011;51878;55.748;48.742;2024-02-21T13:13:43;5.57;;;4.22;;
65279;SDS011;51878;55.748;48.742;2024-02-21T13:18:45;6.00;;;3.08;;
65279;SDS011;51878;55.748;48.742;2024-02-21T13:23:49;3.78;;;2.80;;
65279;SDS011;51878;55.748;48.742;2024-02-21T13:28:51;7.03;;;3.78;;
65279;SDS011;51878;55.748;48.742;2024-02-21T13:33:53;6.65;;;3.65;;
65279;SDS011;51878;55.748;48.742;2024-02-21T13:38:55;7.70;;;3.90;;
65279;SDS011;51878;55.748;48.742;2024-02-21T13:43:58;8.88;;;3.50;;
65279;SDS011;51878;55.748;48.742;2024-02-21T13:49:03;4.97;;;2.60;;
65279;SDS011;51878;55.748;48.742;2024-02-21T13:54:07;7.10;;;3.92;;
65279;SDS011;51878;55.748;48.742;2024-02-21T13:59:15;23.05;;;3.70;;
65279;SDS011;51878;55.748;48.742;2024-02-21T14:04:18;3.47;;;3.03;;
65279;SDS011;51878;55.748;48.742;2024-02-21T14:09:20;5.80;;;3.45;;
65279;SDS011;51878;55.748;48.742;2024-02-21T14:14:22;3.08;;;2.00;;
65279;SDS011;51878;55.748;48.742;2024-02-21T14:19:25;15.55;;;3.45;;
65279;SDS011;51878;55.748;48.742;2024-02-21T14:24:27;6.30;;;3.53;;
65279;SDS011;51878;55.748;48.742;2024-02-21T14:29:29;5.30;;;3.60;;
65279;SDS011;51878;55.748;48.742;2024-02-21T14:34:32;10.88;;;3.65;;
65279;SDS011;51878;55.748;48.742;2024-02-21T14:39:35;7.28;;;3.92;;
65279;SDS011;51878;55.748;48.742;2024-02-21T14:44:37;6.13;;;3.22;;
65279;SDS011;51878;55.748;48.742;2024-02-21T14:49:39;5.25;;;3.42;;
65279;SDS011;51878;55.748;48.742;2024-02-21T14:54:42;7.78;;;3.65;;
65279;SDS011;51878;55.748;48.742;2024-02-21T14:59:47;7.70;;;3.30;;
65279;SDS011;51878;55.748;48.742;2024-02-21T15:04:58;3.10;;;2.45;;
65279;SDS011;51878;55.748;48.742;2024-02-21T15:10:00;5.80;;;3.20;;
65279;SDS011;51878;55.748;48.742;2024-02-21T15:15:05;10.27;;;4.10;;
65279;SDS011;51878;55.748;48.742;2024-02-21T15:20:07;3.65;;;2.60;;
65279;SDS011;51878;55.748;48.742;2024-02-21T15:25:10;6.57;;;3.88;;
65279;SDS011;51878;55.748;48.742;2024-02-21T15:30:18;7.10;;;3.80;;
65279;SDS011;51878;55.748;48.742;2024-02-21T15:35:20;3.47;;;2.47;;
65279;SDS011;51878;55.748;48.742;2024-02-21T15:40:23;5.68;;;3.25;;
65279;SDS011;51878;55.748;48.742;2024-02-21T15:45:25;4.35;;;2.53;;
65279;SDS011;51878;55.748;48.742;2024-02-21T15:50:28;12.98;;;3.42;;
65279;SDS011;51878;55.748;48.742;2024-02-21T15:55:31;4.53;;;2.83;;
65279;SDS011;51878;55.748;48.742;2024-02-21T16:00:33;2.88;;;1.85;;
65279;SDS011;51878;55.748;48.742;2024-02-21T16:05:35;6.75;;;3.35;;
65279;SDS011;51878;55.748;48.742;2024-02-21T16:10:38;3.78;;;2.70;;
65279;SDS011;51878;55.748;48.742;2024-02-21T16:15:41;5.68;;;3.10;;
65279;SDS011;51878;55.748;48.742;2024-02-21T16:20:48;12.32;;;4.15;;
65279;SDS011;51878;55.748;48.742;2024-02-21T16:25:51;6.90;;;2.85;;
65279;SDS011;51878;55.748;48.742;2024-02-21T16:30:54;6.63;;;3.55;;
65279;SDS011;51878;55.748;48.742;2024-02-21T16:35:59;6.07;;;3.85;;
65279;SDS011;51878;55.748;48.742;2024-02-21T16:41:04;4.97;;;3.83;;
65279;SDS011;51878;55.748;48.742;2024-02-21T16:46:06;8.77;;;4.38;;
65279;SDS011;51878;55.748;48.742;2024-02-21T16:51:09;13.25;;;4.32;;
65279;SDS011;51878;55.748;48.742;2024-02-21T16:56:11;4.35;;;2.92;;
65279;SDS011;51878;55.748;48.742;2024-02-21T17:01:14;6.25;;;3.33;;
65279;SDS011;51878;55.748;48.742;2024-02-21T17:06:18;5.80;;;4.13;;
65279;SDS011;51878;55.748;48.742;2024-02-21T17:11:20;5.25;;;3.63;;
65279;SDS011;51878;55.748;48.742;2024-02-21T17:16:23;9.20;;;4.20;;
65279;SDS011;51878;55.748;48.742;2024-02-21T17:21:25;8.48;;;4.30;;
65279;SDS011;51878;55.748;48.742;2024-02-21T17:26:29;7.43;;;5.43;;
65279;SDS011;51878;55.748;48.742;2024-02-21T17:31:32;9.68;;;3.28;;
65279;SDS011;51878;55.748;48.742;2024-02-21T17:36:35;7.63;;;3.65;;
65279;SDS011;51878;55.748;48.742;2024-02-21T17:41:37;9.65;;;4.75;;
65279;SDS011;51878;55.748;48.742;2024-02-21T17:46:40;6.45;;;3.80;;
65279;SDS011;51878;55.748;48.742;2024-02-21T17:51:46;6.38;;;3.60;;
65279;SDS011;51878;55.748;48.742;2024-02-21T17:56:55;4.88;;;3.45;;
65279;SDS011;51878;55.748;48.742;2024-02-21T18:07:03;4.55;;;3.38;;
65279;SDS011;51878;55.748;48.742;2024-02-21T18:12:06;3.65;;;3.30;;
65279;SDS011;51878;55.748;48.742;2024-02-21T18:17:17;8.52;;;4.20;;
65279;SDS011;51878;55.748;48.742;2024-02-21T18:22:22;7.10;;;4.35;;
65279;SDS011;51878;55.748;48.742;2024-02-21T18:27:28;10.38;;;3.92;;
65279;SDS011;51878;55.748;48.742;2024-02-21T18:32:33;5.50;;;3.83;;
65279;SDS011;51878;55.748;48.742;2024-02-21T18:37:42;7.85;;;3.45;;
65279;SDS011;51878;55.748;48.742;2024-02-21T18:43:01;8.75;;;3.53;;
65279;SDS011;51878;55.748;48.742;2024-02-21T18:48:06;4.70;;;3.65;;
65279;SDS011;51878;55.748;48.742;2024-02-21T18:53:14;8.27;;;3.80;;
65279;SDS011;51878;55.748;48.742;2024-02-21T18:58:30;4.57;;;3.20;;
65279;SDS011;51878;55.748;48.742;2024-02-21T19:03:35;7.82;;;4.88;;
65279;SDS011;51878;55.748;48.742;2024-02-21T19:08:40;4.63;;;3.42;;
65279;SDS011;51878;55.748;48.742;2024-02-21T19:13:43;7.47;;;5.70;;
65279;SDS011;51878;55.748;48.742;2024-02-21T19:18:49;5.80;;;4.38;;
65279;SDS011;51878;55.748;48.742;2024-02-21T19:23:52;8.13;;;3.85;;
65279;SDS011;51878;55.748;48.742;2024-02-21T19:28:58;10.18;;;5.30;;
65279;SDS011;51878;55.748;48.742;2024-02-21T19:34:18;7.65;;;4.30;;
65279;SDS011;51878;55.748;48.742;2024-02-21T19:39:21;17.30;;;5.07;;
65279;SDS011;51878;55.748;48.742;2024-02-21T19:44:28;3.50;;;2.40;;
65279;SDS011;51878;55.748;48.742;2024-02-21T19:49:30;6.45;;;4.45;;
65279;SDS011;51878;55.748;48.742;2024-02-21T19:54:34;5.57;;;2.95;;
65279;SDS011;51878;55.748;48.742;2024-02-21T19:59:37;5.95;;;3.00;;
65279;SDS011;51878;55.748;48.742;2024-02-21T20:04:40;4.07;;;3.63;;
65279;SDS011;51878;55.748;48.742;2024-02-21T20:09:42;5.60;;;3.42;;
65279;SDS011;51878;55.748;48.742;2024-02-21T20:14:44;5.25;;;3.22;;
65279;SDS011;51878;55.748;48.742;2024-02-21T20:19:47;6.32;;;3.80;;
65279;SDS011;51878;55.748;48.742;2024-02-21T20:24:49;7.15;;;3.90;;
65279;SDS011;51878;55.748;48.742;2024-02-21T20:29:52;8.18;;;4.18;;
65279;SDS011;51878;55.748;48.742;2024-02-21T20:35:18;3.50;;;2.60;;
65279;SDS011;51878;55.748;48.742;2024-02-21T20:40:22;4.03;;;3.50;;
65279;SDS011;51878;55.748;48.742;2024-02-21T20:45:24;4.72;;;2.90;;
65279;SDS011;51878;55.748;48.742;2024-02-21T20:50:27;4.15;;;3.65;;
65279;SDS011;51878;55.748;48.742;2024-02-21T20:55:30;3.97;;;2.92;;
65279;SDS011;51878;55.748;48.742;2024-02-21T21:00:32;4.60;;;2.97;;
65279;SDS011;51878;55.748;48.742;2024-02-21T21:05:36;6.55;;;4.00;;
65279;SDS011;51878;55.748;48.742;2024-02-21T21:10:39;15.57;;;3.50;;
65279;SDS011;51878;55.748;48.742;2024-02-21T21:15:41;3.03;;;2.17;;
65279;SDS011;51878;55.748;48.742;2024-02-21T21:20:45;3.25;;;2.78;;
65279;SDS011;51878;55.748;48.742;2024-02-21T21:25:47;2.17;;;2.00;;
65279;SDS011;51878;55.748;48.742;2024-02-21T21:30:49;2.58;;;2.25;;
65279;SDS011;51878;55.748;48.742;2024-02-21T21:35:52;3.20;;;2.55;;
65279;SDS011;51878;55.748;48.742;2024-02-21T21:40:54;3.85;;;2.90;;
65279;SDS011;51878;55.748;48.742;2024-02-21T21:45:58;7.00;;;4.25;;
65279;SDS011;51878;55.748;48.742;2024-02-21T21:51:01;12.13;;;3.72;;
65279;SDS011;51878;55.748;48.742;2024-02-21T21:56:04;7.10;;;4.20;;
65279;SDS011;51878;55.748;48.742;2024-02-21T22:01:09;3.50;;;2.42;;
65279;SDS011;51878;55.748;48.742;2024-02-21T22:06:15;3.67;;;2.92;;
65279;SDS011;51878;55.748;48.742;2024-02-21T22:11:17;5.22;;;4.35;;
65279;SDS011;51878;55.748;48.742;2024-02-21T22:16:20;3.00;;;2.55;;
65279;SDS011;51878;55.748;48.742;2024-02-21T22:21:22;4.22;;;2.13;;
65279;SDS011;51878;55.748;48.742;2024-02-21T22:26:24;3.15;;;2.33;;
65279;SDS011;51878;55.748;48.742;2024-02-21T22:31:28;3.10;;;1.73;;
65279;SDS011;51878;55.748;48.742;2024-02-21T22:36:30;2.92;;;2.25;;
65279;SDS011;51878;55.748;48.742;2024-02-21T22:41:32;4.38;;;2.83;;
65279;SDS011;51878;55.748;48.742;2024-02-21T22:46:35;4.40;;;2.90;;
65279;SDS011;51878;55.748;48.742;2024-02-21T22:51:37;4.03;;;3.15;;
65279;SDS011;51878;55.748;48.742;2024-02-21T22:56:39;2.90;;;2.28;;
65279;SDS011;51878;55.748;48.742;2024-02-21T23:01:41;3.42;;;2.70;;
65279;SDS011;51878;55.748;48.742;2024-02-21T23:06:44;5.45;;;2.92;;
65279;SDS011;51878;55.748;48.742;2024-02-21T23:11:47;4.38;;;2.67;;
65279;SDS011;51878;55.748;48.742;2024-02-21T23:16:50;1.90;;;1.80;;
65279;SDS011;51878;55.748;48.742;2024-02-21T23:21:52;1.40;;;1.33;;
65279;SDS011;51878;55.748;48.742;2024-02-21T23:26:54;7.95;;;1.92;;
65279;SDS011;51878;55.748;48.742;2024-02-21T23:31:56;6.13;;;2.20;;
65279;SDS011;51878;55.748;48.742;2024-02-21T23:36:58;3.10;;;2.13;;
65279;SDS011;51878;55.748;48.742;2024-02-21T23:42:01;2.53;;;2.33;;
65279;SDS011;51878;55.748;48.742;2024-02-21T23:47:03;2.05;;;1.73;;
65279;SDS011;51878;55.748;48.742;2024-02-21T23:52:06;3.80;;;1.90;;
65279;SDS011;51878;55.748;48.742;2024-02-21T23:57:08;2.92;;;2.33;;
